Time;durP1;ratioP1;P1;durP2;ratioP2;P2;SDS_P1;SDS_P2;PMS_P1;PMS_P2;Temp;Humidity;BMP_temperature;BMP_pressure;BME280_temperature;BME280_humidity;BME280_pressure;Samples;Min_cycle;Max_cycle;Signal;HPM_P1;HPM_P2
2021/03/27 00:00:05;;;;;;;7.07;6.38;;;14.00;49.10;;;;;;2065054;28;20034;-60
2021/03/27 00:01:35;;;;;;;6.78;6.18;;;14.00;49.60;;;;;;2061355;28;20039;-59
2021/03/27 00:03:29;;;;;;;6.70;6.10;;;13.90;49.30;;;;;;2064189;28;20081;-59
2021/03/27 00:05:06;;;;;;;6.93;5.35;;;13.90;49.70;;;;;;2050662;28;20439;-61
2021/03/27 00:06:41;;;;;;;7.07;5.32;;;13.90;49.70;;;;;;2060090;28;20366;-60
2021/03/27 00:08:12;;;;;;;5.47;4.97;;;13.80;49.60;;;;;;2066506;28;20050;-60
2021/03/27 00:09:42;;;;;;;5.75;5.15;;;13.70;49.50;;;;;;2062372;28;20099;-60
2021/03/27 00:11:23;;;;;;;6.45;5.05;;;13.70;49.50;;;;;;2065862;28;20034;-59
2021/03/27 00:12:54;;;;;;;5.20;4.78;;;13.60;49.80;;;;;;2062723;28;20026;-60
2021/03/27 00:14:21;;;;;;;5.35;4.88;;;13.60;49.80;;;;;;2058708;28;20062;-60
2021/03/27 00:16:03;;;;;;;5.57;5.07;;;13.50;49.80;;;;;;2062544;28;20062;-59
2021/03/27 00:17:52;;;;;;;5.70;5.20;;;13.40;50.60;;;;;;2061016;28;20038;-59
2021/03/27 00:19:51;;;;;;;4.82;4.40;;;13.40;51.60;;;;;;2065342;28;20030;-59
2021/03/27 00:21:30;;;;;;;3.92;3.60;;;13.30;51.30;;;;;;2065468;28;20129;-60
2021/03/27 00:23:20;;;;;;;3.58;3.33;;;13.20;51.00;;;;;;2063632;28;20088;-60
2021/03/27 00:24:56;;;;;;;3.45;3.15;;;13.10;51.40;;;;;;2060597;28;20042;-60
2021/03/27 00:26:50;;;;;;;2.85;2.65;;;13.00;51.80;;;;;;2064234;28;20046;-60
2021/03/27 00:28:21;;;;;;;2.65;2.45;;;12.90;51.70;;;;;;2059062;28;20303;-59
2021/03/27 00:29:47;;;;;;;2.50;2.30;;;12.80;51.60;;;;;;2064567;28;20548;-60
2021/03/27 00:31:21;;;;;;;2.58;2.38;;;12.70;51.70;;;;;;2061798;28;20457;-60
2021/03/27 00:32:47;;;;;;;2.45;2.22;;;12.60;52.40;;;;;;2061420;28;20306;-60
2021/03/27 00:34:14;;;;;;;2.28;2.17;;;12.50;52.10;;;;;;2064834;28;20065;-60
2021/03/27 00:35:42;;;;;;;2.30;1.90;;;12.50;52.60;;;;;;2066720;28;20062;-61
2021/03/27 00:37:06;;;;;;;2.10;1.90;;;12.40;52.90;;;;;;2066447;28;20034;-59
2021/03/27 00:38:39;;;;;;;1.77;1.67;;;12.30;52.80;;;;;;2068883;28;20355;-61
2021/03/27 00:40:09;;;;;;;1.63;1.55;;;12.20;53.30;;;;;;2058150;28;20356;-59
2021/03/27 00:41:47;;;;;;;1.77;1.67;;;12.20;53.20;;;;;;2061483;28;20416;-60
2021/03/27 00:43:14;;;;;;;1.70;1.60;;;12.10;53.10;;;;;;2065124;28;20049;-59
2021/03/27 00:44:45;;;;;;;2.13;1.90;;;12.10;53.10;;;;;;2067230;28;20185;-59
2021/03/27 00:46:10;;;;;;;1.70;1.60;;;12.00;53.20;;;;;;2064992;28;20045;-60
2021/03/27 00:47:36;;;;;;;1.70;1.60;;;11.90;53.30;;;;;;2064907;28;20382;-60
2021/03/27 00:49:09;;;;;;;1.70;1.60;;;11.90;53.40;;;;;;2067041;28;20446;-60
2021/03/27 00:50:38;;;;;;;1.67;1.50;;;11.80;53.90;;;;;;2056995;28;20422;-61
2021/03/27 00:52:08;;;;;;;1.58;1.48;;;11.80;53.20;;;;;;2063588;28;20042;-60
2021/03/27 00:53:54;;;;;;;2.33;1.80;;;11.70;53.80;;;;;;2056206;28;20085;-59
2021/03/27 00:55:23;;;;;;;1.60;1.50;;;11.70;54.50;;;;;;2064700;28;20037;-58
2021/03/27 00:57:13;;;;;;;4.60;1.90;;;11.70;54.00;;;;;;2066970;28;20049;-59
2021/03/27 00:59:02;;;;;;;2.30;1.73;;;11.60;54.70;;;;;;2061394;28;20034;-59
2021/03/27 01:00:41;;;;;;;1.73;1.42;;;11.60;54.10;;;;;;2049900;28;20137;-60
2021/03/27 01:02:08;;;;;;;1.98;1.50;;;11.50;54.60;;;;;;2064359;28;20057;-60
2021/03/27 01:03:38;;;;;;;2.28;1.45;;;11.40;54.00;;;;;;2066852;28;20041;-59
2021/03/27 01:05:04;;;;;;;1.85;1.50;;;11.40;54.80;;;;;;2064561;28;20038;-61
2021/03/27 01:06:37;;;;;;;1.52;1.10;;;11.40;54.30;;;;;;2060673;28;20027;-60
2021/03/27 01:08:00;;;;;;;2.13;1.60;;;11.30;54.60;;;;;;2065323;28;20551;-58
2021/03/27 01:09:28;;;;;;;1.77;1.20;;;11.30;54.40;;;;;;2058813;28;20133;-59
2021/03/27 01:10:55;;;;;;;2.35;1.45;;;11.30;54.90;;;;;;2064635;28;20038;-59
2021/03/27 01:12:22;;;;;;;1.40;1.27;;;11.20;54.50;;;;;;2066301;28;20030;-59
2021/03/27 01:13:47;;;;;;;3.08;1.23;;;11.20;54.90;;;;;;2063607;28;21148;-59
2021/03/27 01:15:16;;;;;;;2.00;1.25;;;11.10;55.00;;;;;;2064830;28;20042;-59
2021/03/27 01:16:43;;;;;;;4.85;1.40;;;11.10;55.10;;;;;;2064812;28;20042;-59
2021/03/27 01:18:11;;;;;;;2.60;1.15;;;11.10;55.30;;;;;;2066073;28;20034;-59
2021/03/27 01:19:42;;;;;;;4.93;1.13;;;11.00;55.10;;;;;;2063386;28;20038;-59
2021/03/27 01:21:07;;;;;;;3.72;1.30;;;11.00;55.00;;;;;;2066918;28;20026;-60
2021/03/27 01:22:29;;;;;;;1.15;1.05;;;11.00;55.30;;;;;;2062399;28;20019;-60
2021/03/27 01:23:59;;;;;;;2.10;1.10;;;11.00;55.10;;;;;;2063652;28;20474;-59
2021/03/27 01:25:29;;;;;;;3.42;1.60;;;11.00;56.00;;;;;;2066257;28;20458;-59
2021/03/27 01:27:06;;;;;;;2.45;1.10;;;11.00;55.80;;;;;;2065645;28;20038;-60
2021/03/27 01:28:38;;;;;;;1.20;1.00;;;11.00;55.80;;;;;;2058011;28;20054;-59
2021/03/27 01:30:05;;;;;;;1.38;1.08;;;10.90;55.90;;;;;;2063670;28;20414;-60
2021/03/27 01:31:40;;;;;;;2.10;1.17;;;10.90;55.80;;;;;;2060642;28;20042;-59
2021/03/27 01:33:26;;;;;;;1.20;1.10;;;10.90;55.90;;;;;;2065676;28;20038;-59
2021/03/27 01:34:55;;;;;;;2.25;1.10;;;10.90;55.40;;;;;;2056963;28;20113;-61
2021/03/27 01:36:20;;;;;;;2.30;1.20;;;10.90;55.70;;;;;;2062464;28;20035;-60
2021/03/27 01:37:56;;;;;;;1.58;1.10;;;10.90;55.70;;;;;;2065077;28;20069;-57
2021/03/27 01:39:21;;;;;;;2.55;1.20;;;10.90;55.80;;;;;;2064031;28;20034;-60
2021/03/27 01:41:15;;;;;;;3.08;1.30;;;10.90;55.60;;;;;;2060416;28;20034;-60
2021/03/27 01:42:39;;;;;;;2.30;1.40;;;10.80;56.10;;;;;;2052239;28;20043;-60
2021/03/27 01:44:06;;;;;;;3.20;1.77;;;10.80;55.80;;;;;;2061360;28;20066;-60
2021/03/27 01:46:00;;;;;;;2.05;1.40;;;10.90;56.00;;;;;;2063015;28;20050;-59
2021/03/27 01:47:40;;;;;;;2.42;1.40;;;10.80;56.30;;;;;;2064330;28;20482;-60
2021/03/27 01:49:21;;;;;;;3.45;1.52;;;10.80;56.40;;;;;;2063785;28;20049;-60
2021/03/27 01:50:46;;;;;;;1.50;1.40;;;10.80;56.90;;;;;;2043080;28;20036;-59
2021/03/27 01:52:28;;;;;;;2.30;1.30;;;10.80;56.20;;;;;;2063866;28;20035;-60
2021/03/27 01:53:54;;;;;;;3.08;1.42;;;10.80;57.00;;;;;;2062831;28;20068;-59
2021/03/27 01:55:57;;;;;;;3.67;1.40;;;10.80;56.60;;;;;;2064454;28;20031;-59
2021/03/27 01:57:33;;;;;;;1.52;1.20;;;10.80;57.30;;;;;;2032682;29;20036;-60
2021/03/27 01:59:12;;;;;;;4.10;1.60;;;10.80;56.50;;;;;;2028930;29;20044;-59
2021/03/27 02:00:45;;;;;;;2.40;1.23;;;10.80;57.10;;;;;;2031537;29;20040;-59
2021/03/27 02:02:20;;;;;;;3.97;1.40;;;10.70;57.30;;;;;;2031020;28;20250;-60
2021/03/27 02:03:47;;;;;;;6.30;2.28;;;10.70;57.10;;;;;;2060713;28;20046;-59
2021/03/27 02:05:40;;;;;;;2.75;1.60;;;10.70;57.30;;;;;;2062180;28;20061;-59
2021/03/27 02:07:29;;;;;;;3.88;1.42;;;10.70;57.80;;;;;;2063727;28;20050;-60
2021/03/27 02:09:08;;;;;;;2.72;1.42;;;10.70;57.10;;;;;;2066383;28;20534;-60
2021/03/27 02:10:41;;;;;;;3.80;1.35;;;10.60;57.70;;;;;;2065164;28;20128;-59
2021/03/27 02:12:08;;;;;;;4.00;1.38;;;10.60;57.80;;;;;;2066096;28;20113;-58
2021/03/27 02:13:55;;;;;;;1.30;1.20;;;10.60;57.30;;;;;;2061419;28;20044;-60
2021/03/27 02:15:23;;;;;;;3.97;1.45;;;10.60;58.10;;;;;;2064046;28;20579;-59
2021/03/27 02:16:48;;;;;;;1.98;1.30;;;10.60;58.10;;;;;;2061418;28;20089;-59
2021/03/27 02:18:39;;;;;;;4.15;1.50;;;10.50;57.80;;;;;;2066116;28;20042;-59
2021/03/27 02:20:13;;;;;;;4.10;1.88;;;10.50;58.70;;;;;;2064337;28;20446;-59
2021/03/27 02:22:05;;;;;;;3.72;1.52;;;10.50;58.30;;;;;;2060213;28;20038;-58
2021/03/27 02:24:04;;;;;;;3.70;1.42;;;10.50;58.40;;;;;;2064889;28;20456;-59
2021/03/27 02:25:50;;;;;;;3.92;1.80;;;10.40;58.60;;;;;;2063828;28;20042;-59
2021/03/27 02:27:26;;;;;;;3.80;1.50;;;10.40;58.60;;;;;;2062558;28;20046;-61
2021/03/27 02:29:05;;;;;;;2.83;1.40;;;10.40;58.30;;;;;;2061280;28;20038;-59
2021/03/27 02:30:34;;;;;;;2.80;1.70;;;10.40;58.00;;;;;;2065309;28;20358;-59
2021/03/27 02:32:00;;;;;;;2.83;1.30;;;10.30;58.00;;;;;;2063592;28;20038;-60
2021/03/27 02:33:40;;;;;;;3.50;1.75;;;10.30;58.40;;;;;;2070076;28;20080;-59
2021/03/27 02:35:18;;;;;;;3.95;1.60;;;10.30;58.70;;;;;;2064123;28;20458;-60
2021/03/27 02:36:50;;;;;;;3.38;1.42;;;10.20;58.30;;;;;;2064048;28;20039;-60
2021/03/27 02:38:31;;;;;;;1.73;1.42;;;10.30;58.30;;;;;;2064750;28;20034;-59
2021/03/27 02:39:57;;;;;;;3.92;1.77;;;10.30;58.70;;;;;;2062328;28;20034;-59
2021/03/27 02:41:28;;;;;;;4.28;1.90;;;10.30;58.50;;;;;;2055708;28;20411;-60
2021/03/27 02:43:02;;;;;;;3.10;1.88;;;10.20;58.50;;;;;;2059977;28;20121;-59
2021/03/27 02:44:38;;;;;;;3.03;1.90;;;10.30;58.30;;;;;;2064644;28;20073;-59
2021/03/27 02:46:22;;;;;;;4.43;1.98;;;10.20;58.20;;;;;;2063941;28;20570;-59
2021/03/27 02:47:58;;;;;;;3.22;2.15;;;10.20;58.30;;;;;;2059893;28;20121;-61
2021/03/27 02:49:35;;;;;;;4.75;2.13;;;10.30;58.30;;;;;;2064126;28;20040;-60
2021/03/27 02:51:03;;;;;;;4.10;2.00;;;10.20;58.10;;;;;;2062711;28;20042;-59
2021/03/27 02:52:54;;;;;;;6.90;2.67;;;10.30;57.80;;;;;;2064730;28;20026;-59
2021/03/27 02:54:27;;;;;;;6.13;2.40;;;10.20;58.20;;;;;;2063782;28;20030;-60
2021/03/27 02:56:27;;;;;;;5.13;2.38;;;10.20;58.60;;;;;;2062552;28;20038;-58
2021/03/27 02:58:17;;;;;;;2.53;2.28;;;10.20;58.50;;;;;;2062741;28;20121;-59
2021/03/27 02:59:59;;;;;;;4.07;2.20;;;10.30;58.30;;;;;;2061087;28;20093;-60
2021/03/27 03:01:27;;;;;;;3.75;2.65;;;10.20;58.40;;;;;;2064625;28;20038;-60
2021/03/27 03:02:52;;;;;;;3.58;2.47;;;10.30;58.20;;;;;;2061019;28;20030;-59
2021/03/27 03:04:26;;;;;;;4.72;2.78;;;10.30;58.20;;;;;;2065463;28;20100;-60
2021/03/27 03:05:52;;;;;;;2.88;2.67;;;10.30;58.40;;;;;;2061388;28;20419;-61
2021/03/27 03:07:25;;;;;;;5.20;3.10;;;10.30;58.10;;;;;;2062148;28;20034;-60
2021/03/27 03:09:18;;;;;;;4.53;2.38;;;10.30;58.40;;;;;;2062979;28;20125;-59
2021/03/27 03:11:02;;;;;;;3.53;2.72;;;10.30;58.60;;;;;;2062987;28;20129;-59
2021/03/27 03:12:47;;;;;;;4.38;2.30;;;10.30;58.50;;;;;;2063338;28;20031;-59
2021/03/27 03:14:31;;;;;;;4.93;2.67;;;10.30;58.50;;;;;;2062545;28;20045;-59
2021/03/27 03:16:08;;;;;;;5.75;3.05;;;10.30;58.40;;;;;;2060825;28;20034;-59
2021/03/27 03:17:49;;;;;;;3.78;2.72;;;10.30;58.10;;;;;;2060219;28;20043;-60
2021/03/27 03:19:21;;;;;;;3.97;2.60;;;10.30;58.60;;;;;;2060259;28;20038;-59
2021/03/27 03:20:54;;;;;;;3.78;2.75;;;10.30;58.40;;;;;;2063150;28;20096;-59
2021/03/27 03:22:43;;;;;;;3.17;2.60;;;10.30;58.30;;;;;;2063023;28;20080;-59
2021/03/27 03:24:28;;;;;;;3.67;2.70;;;10.30;58.20;;;;;;2064591;28;20112;-59
2021/03/27 03:26:27;;;;;;;7.43;2.60;;;10.30;58.20;;;;;;2065202;28;20074;-60
2021/03/27 03:28:28;;;;;;;3.97;2.60;;;10.40;58.20;;;;;;2063141;28;20026;-59
2021/03/27 03:30:22;;;;;;;3.28;2.60;;;10.40;59.20;;;;;;2064499;28;20042;-60
2021/03/27 03:32:05;;;;;;;3.67;2.40;;;10.40;58.30;;;;;;2053557;28;20039;-59
2021/03/27 03:33:31;;;;;;;3.10;2.45;;;10.40;58.10;;;;;;2059315;28;20062;-59
2021/03/27 03:35:07;;;;;;;4.57;2.25;;;10.40;57.60;;;;;;2055179;28;20377;-61
2021/03/27 03:36:52;;;;;;;3.47;2.25;;;10.40;57.80;;;;;;2059679;28;20284;-60
2021/03/27 03:38:58;;;;;;;3.92;2.53;;;10.40;58.00;;;;;;2062964;28;20450;-59
2021/03/27 03:40:45;;;;;;;5.00;2.30;;;10.40;57.80;;;;;;2032862;29;20180;-59
2021/03/27 03:42:33;;;;;;;3.53;2.50;;;10.40;57.60;;;;;;2038732;29;20052;-59
2021/03/27 03:44:00;;;;;;;4.18;2.33;;;10.40;57.80;;;;;;2037929;29;20348;-59
2021/03/27 03:45:48;;;;;;;3.38;2.50;;;10.40;57.50;;;;;;2043258;28;20043;-60
2021/03/27 03:47:19;;;;;;;5.55;2.45;;;10.40;57.70;;;;;;2061520;28;20065;-59
2021/03/27 03:48:55;;;;;;;4.38;2.30;;;10.40;57.40;;;;;;2061734;28;20040;-60
2021/03/27 03:50:27;;;;;;;6.47;2.60;;;10.40;57.50;;;;;;2064379;28;20514;-60
2021/03/27 03:51:57;;;;;;;4.32;2.22;;;10.40;57.70;;;;;;2063755;28;20031;-61
2021/03/27 03:53:32;;;;;;;5.68;2.63;;;10.30;57.60;;;;;;2063897;28;20414;-60
2021/03/27 03:55:00;;;;;;;10.85;2.53;;;10.30;57.40;;;;;;2063922;28;20117;-60
2021/03/27 03:56:30;;;;;;;4.75;2.03;;;10.30;57.30;;;;;;2058170;28;20042;-59
2021/03/27 03:58:45;;;;;;;5.05;2.70;;;10.30;57.30;;;;;;2063741;28;20033;-60
2021/03/27 04:00:15;;;;;;;4.70;2.53;;;10.30;57.80;;;;;;2058592;28;20031;-60
2021/03/27 04:02:01;;;;;;;5.50;2.40;;;10.30;57.20;;;;;;2060819;28;20554;-61
2021/03/27 04:03:48;;;;;;;5.25;2.50;;;10.30;57.40;;;;;;2065774;28;20488;-60
2021/03/27 04:05:18;;;;;;;7.00;2.15;;;10.20;57.30;;;;;;2063113;28;20038;-61
2021/03/27 04:06:41;;;;;;;5.32;2.20;;;10.20;56.90;;;;;;2065620;28;20034;-60
2021/03/27 04:08:23;;;;;;;5.43;2.60;;;10.20;56.80;;;;;;2064514;28;20049;-60
2021/03/27 04:09:58;;;;;;;5.55;2.70;;;10.20;57.20;;;;;;2065081;28;20018;-60
2021/03/27 04:11:50;;;;;;;4.72;2.13;;;10.20;57.30;;;;;;2059674;28;20027;-60
2021/03/27 04:13:25;;;;;;;5.25;2.50;;;10.20;57.30;;;;;;2063214;28;20209;-60
2021/03/27 04:14:54;;;;;;;7.22;2.40;;;10.20;57.20;;;;;;2063453;28;20339;-60
2021/03/27 04:16:20;;;;;;;4.63;2.35;;;10.10;57.40;;;;;;2064341;28;20446;-60
2021/03/27 04:17:52;;;;;;;7.53;2.33;;;10.10;57.30;;;;;;2063666;28;20044;-60
2021/03/27 04:19:21;;;;;;;4.05;2.30;;;10.10;57.60;;;;;;2063326;28;20466;-59
2021/03/27 04:20:57;;;;;;;4.88;2.20;;;10.10;57.40;;;;;;2062917;28;20042;-59
2021/03/27 04:22:30;;;;;;;4.80;2.20;;;10.10;57.30;;;;;;2062805;28;20041;-60
2021/03/27 04:24:02;;;;;;;7.07;2.58;;;10.00;57.40;;;;;;2061649;28;20023;-60
2021/03/27 04:25:34;;;;;;;6.95;1.92;;;10.00;57.20;;;;;;2063224;28;20030;-61
2021/03/27 04:27:00;;;;;;;4.82;2.42;;;10.00;57.10;;;;;;2064862;28;20458;-59
2021/03/27 04:28:39;;;;;;;4.50;2.35;;;10.00;57.10;;;;;;2064880;28;20386;-59
2021/03/27 04:30:13;;;;;;;3.85;2.20;;;10.00;57.60;;;;;;2063606;28;20026;-60
2021/03/27 04:31:46;;;;;;;2.85;1.90;;;9.90;57.30;;;;;;2061283;28;20022;-60
2021/03/27 04:33:32;;;;;;;3.60;2.15;;;10.00;56.90;;;;;;2064010;28;20053;-61
2021/03/27 04:35:15;;;;;;;5.80;2.42;;;10.00;57.10;;;;;;2063153;28;20046;-60
2021/03/27 04:37:02;;;;;;;5.63;1.90;;;10.00;57.10;;;;;;2060713;28;20661;-59
2021/03/27 04:38:28;;;;;;;6.25;2.08;;;10.00;57.10;;;;;;2065344;28;20030;-60
2021/03/27 04:40:22;;;;;;;4.97;2.03;;;9.90;57.00;;;;;;2064122;28;20034;-60
2021/03/27 04:41:47;;;;;;;3.88;2.03;;;9.90;57.20;;;;;;2065126;28;20061;-60
2021/03/27 04:43:31;;;;;;;3.92;2.00;;;10.00;57.20;;;;;;2062632;28;20033;-60
2021/03/27 04:44:52;;;;;;;2.88;1.65;;;9.90;57.20;;;;;;2065043;28;20034;-60
2021/03/27 04:46:25;;;;;;;5.40;2.00;;;10.00;57.10;;;;;;2063419;28;20088;-63
2021/03/27 04:48:18;;;;;;;5.20;2.20;;;9.90;57.30;;;;;;2064900;28;20049;-60
2021/03/27 04:49:58;;;;;;;6.38;1.90;;;9.90;57.30;;;;;;2052404;28;20796;-59
2021/03/27 04:51:19;;;;;;;;;;;10.00;57.30;;;;;;2059606;28;20031;-59
2021/03/27 04:53:02;;;;;;;8.15;2.65;;;9.90;57.90;;;;;;2065402;28;20004;-61
2021/03/27 04:54:38;;;;;;;4.18;1.90;;;10.00;57.30;;;;;;2059301;28;20596;-60
2021/03/27 04:56:29;;;;;;;4.45;2.13;;;10.00;57.10;;;;;;2064111;28;20358;-60
2021/03/27 04:58:08;;;;;;;4.82;1.88;;;10.00;57.30;;;;;;2063594;28;20073;-61
2021/03/27 04:59:58;;;;;;;4.10;1.73;;;10.00;57.20;;;;;;2058282;28;20036;-61
2021/03/27 05:01:42;;;;;;;4.65;2.10;;;10.00;57.40;;;;;;2064214;28;20042;-60
2021/03/27 05:03:18;;;;;;;4.10;1.95;;;10.00;57.30;;;;;;2069799;28;20030;-60
2021/03/27 05:04:47;;;;;;;5.45;2.05;;;10.00;57.10;;;;;;2062225;28;20039;-61
2021/03/27 05:06:37;;;;;;;5.05;2.40;;;10.00;57.30;;;;;;2064669;28;20073;-61
2021/03/27 05:08:10;;;;;;;8.32;2.70;;;10.00;57.40;;;;;;2064432;28;20096;-60
2021/03/27 05:09:37;;;;;;;5.68;2.00;;;10.00;57.40;;;;;;2063973;28;20034;-60
2021/03/27 05:11:24;;;;;;;8.63;2.28;;;10.00;57.40;;;;;;2065920;28;20528;-61
2021/03/27 05:12:54;;;;;;;5.10;2.05;;;10.00;57.50;;;;;;2063665;28;20096;-60
2021/03/27 05:14:28;;;;;;;5.07;2.50;;;10.10;57.40;;;;;;2064897;28;20369;-60
2021/03/27 05:15:54;;;;;;;3.17;2.00;;;10.00;57.50;;;;;;2064018;28;20489;-60
2021/03/27 05:17:47;;;;;;;9.05;2.78;;;10.00;57.20;;;;;;2064360;28;20034;-60
2021/03/27 05:19:17;;;;;;;3.65;2.10;;;10.00;57.30;;;;;;2063212;28;20050;-61
2021/03/27 05:20:40;;;;;;;5.35;2.33;;;10.10;57.30;;;;;;2064150;28;20056;-60
2021/03/27 05:22:27;;;;;;;5.60;2.28;;;10.10;57.10;;;;;;2065385;28;20042;-61
2021/03/27 05:24:09;;;;;;;5.55;2.30;;;10.10;57.50;;;;;;2063326;28;20208;-60
2021/03/27 05:25:39;;;;;;;3.70;2.20;;;10.10;57.20;;;;;;2062988;28;20432;-60
2021/03/27 05:27:16;;;;;;;5.00;2.40;;;10.10;57.00;;;;;;2066063;28;20045;-61
2021/03/27 05:29:02;;;;;;;5.72;2.75;;;10.10;57.50;;;;;;2062136;28;20323;-61
2021/03/27 05:30:31;;;;;;;5.20;2.90;;;10.10;57.40;;;;;;2061549;28;20030;-60
2021/03/27 05:32:20;;;;;;;6.88;2.33;;;10.10;57.20;;;;;;2064046;28;20062;-60
2021/03/27 05:34:11;;;;;;;6.78;2.50;;;10.10;57.40;;;;;;2061063;28;20089;-60
2021/03/27 05:35:42;;;;;;;6.40;2.25;;;10.10;57.50;;;;;;2063927;28;20417;-61
2021/03/27 05:37:30;;;;;;;5.05;2.22;;;10.20;57.30;;;;;;2063500;28;20042;-61
2021/03/27 05:39:29;;;;;;;5.28;2.20;;;10.10;57.50;;;;;;2064401;28;20084;-60
2021/03/27 05:40:53;;;;;;;4.88;2.63;;;10.10;58.00;;;;;;2061456;28;20039;-60
2021/03/27 05:43:11;;;;;;;7.35;2.60;;;10.20;57.50;;;;;;2065635;28;20042;-61
2021/03/27 05:44:39;;;;;;;5.72;2.53;;;10.10;57.80;;;;;;2048933;28;20062;-60
2021/03/27 05:46:27;;;;;;;4.35;2.53;;;10.20;57.60;;;;;;2045989;28;20042;-60
2021/03/27 05:48:31;;;;;;;3.95;2.45;;;10.20;57.80;;;;;;2047628;28;20028;-60
2021/03/27 05:50:01;;;;;;;5.43;2.50;;;10.20;58.10;;;;;;2052443;28;20051;-60
2021/03/27 05:52:14;;;;;;;4.03;2.10;;;10.20;57.50;;;;;;2063122;28;20125;-60
2021/03/27 05:54:09;;;;;;;6.65;2.60;;;10.20;57.80;;;;;;2060463;28;20034;-61
2021/03/27 05:55:58;;;;;;;3.17;2.45;;;10.20;57.70;;;;;;2063402;28;20434;-60
2021/03/27 05:57:38;;;;;;;9.45;2.60;;;10.20;57.70;;;;;;2065128;28;20031;-61
2021/03/27 05:59:36;;;;;;;7.82;2.47;;;10.20;57.90;;;;;;2064033;28;20121;-60
2021/03/27 06:01:12;;;;;;;8.07;2.75;;;10.20;57.80;;;;;;2064053;28;20203;-61
2021/03/27 06:03:03;;;;;;;5.95;2.60;;;10.20;57.50;;;;;;2060326;28;20088;-61
2021/03/27 06:05:09;;;;;;;6.68;3.10;;;10.30;57.90;;;;;;2057593;28;20043;-61
2021/03/27 06:06:43;;;;;;;7.60;2.30;;;10.30;58.20;;;;;;2065040;28;20493;-59
2021/03/27 06:08:13;;;;;;;5.95;2.40;;;10.30;58.40;;;;;;2065473;28;20038;-60
2021/03/27 06:09:49;;;;;;;6.55;2.63;;;10.30;58.70;;;;;;2059486;28;20034;-61
2021/03/27 06:11:31;;;;;;;6.88;2.50;;;10.30;58.50;;;;;;2063663;28;20064;-60
2021/03/27 06:13:34;;;;;;;8.15;2.70;;;10.30;58.60;;;;;;2064698;28;20042;-61
2021/03/27 06:15:07;;;;;;;5.03;2.78;;;10.30;58.50;;;;;;2065809;28;20027;-58
2021/03/27 06:16:55;;;;;;;5.20;2.05;;;10.30;58.50;;;;;;2059825;28;20042;-61
2021/03/27 06:19:02;;;;;;;9.10;2.42;;;10.30;58.10;;;;;;2066464;28;20030;-61
2021/03/27 06:20:58;;;;;;;6.75;2.50;;;10.30;58.40;;;;;;2063822;28;20022;-62
2021/03/27 06:22:19;;;;;;;4.80;2.03;;;10.30;57.90;;;;;;2058970;28;20090;-61
2021/03/27 06:24:31;;;;;;;2.95;1.80;;;10.20;57.60;;;;;;2063371;28;20455;-60
2021/03/27 06:26:11;;;;;;;7.15;2.03;;;10.20;58.50;;;;;;2037572;28;20063;-59
2021/03/27 06:28:09;;;;;;;5.63;2.65;;;10.20;58.30;;;;;;2060525;28;20069;-59
2021/03/27 06:29:29;;;;;;;5.85;2.40;;;10.20;58.40;;;;;;2059936;28;20045;-59
2021/03/27 06:31:06;;;;;;;6.63;2.50;;;10.20;57.90;;;;;;2063998;28;20030;-59
2021/03/27 06:33:01;;;;;;;7.03;2.30;;;10.20;58.50;;;;;;2059402;28;20042;-59
2021/03/27 06:34:47;;;;;;;5.78;1.92;;;10.10;58.90;;;;;;2063257;28;20089;-60
2021/03/27 06:36:45;;;;;;;6.13;2.53;;;10.20;58.50;;;;;;2064827;28;20072;-60
2021/03/27 06:38:12;;;;;;;5.97;2.30;;;10.10;58.70;;;;;;2065381;28;20548;-61
2021/03/27 06:40:21;;;;;;;6.63;1.98;;;10.20;58.00;;;;;;2064780;28;20026;-60
2021/03/27 06:42:23;;;;;;;6.70;2.40;;;10.10;58.50;;;;;;2041225;29;20043;-61
2021/03/27 06:43:59;;;;;;;4.03;2.22;;;10.10;58.50;;;;;;2064338;28;20081;-60
2021/03/27 06:45:31;;;;;;;8.32;2.45;;;10.10;58.10;;;;;;2066590;28;20420;-61
2021/03/27 06:47:28;;;;;;;3.90;2.10;;;10.10;58.20;;;;;;2064659;28;20038;-61
2021/03/27 06:49:10;;;;;;;6.07;1.80;;;10.10;58.90;;;;;;2063337;28;20034;-62
2021/03/27 06:50:37;;;;;;;6.15;2.33;;;10.10;58.60;;;;;;2062189;28;20053;-60
2021/03/27 06:52:17;;;;;;;4.72;2.10;;;10.10;58.20;;;;;;2067584;28;20454;-61
2021/03/27 06:53:56;;;;;;;5.15;1.80;;;10.10;58.60;;;;;;2062824;28;20030;-59
2021/03/27 06:55:33;;;;;;;5.75;1.88;;;10.10;58.20;;;;;;2063688;28;20081;-60
2021/03/27 06:57:01;;;;;;;3.40;1.40;;;10.10;58.70;;;;;;2061448;28;20487;-60
2021/03/27 06:58:56;;;;;;;4.20;1.70;;;10.00;58.30;;;;;;2065799;28;20421;-61
2021/03/27 07:00:29;;;;;;;2.67;1.20;;;10.00;58.70;;;;;;2063595;28;20037;-60
2021/03/27 07:02:08;;;;;;;3.15;1.30;;;10.00;58.30;;;;;;2063518;28;20138;-60
2021/03/27 07:04:00;;;;;;;1.55;1.42;;;10.00;58.10;;;;;;2061601;28;20076;-61
2021/03/27 07:06:06;;;;;;;1.15;1.10;;;10.00;57.90;;;;;;2065803;28;20037;-60
2021/03/27 07:07:43;;;;;;;4.22;1.73;;;10.00;57.80;;;;;;2064051;28;20057;-60
2021/03/27 07:09:28;;;;;;;1.35;1.10;;;10.00;57.70;;;;;;2065581;28;20061;-59
2021/03/27 07:10:52;;;;;;;1.85;1.00;;;10.00;58.00;;;;;;2063703;28;20031;-59
2021/03/27 07:12:37;;;;;;;4.95;1.40;;;9.90;57.30;;;;;;2063347;28;20473;-60
2021/03/27 07:14:44;;;;;;;2.38;1.00;;;9.90;57.60;;;;;;2069059;28;20081;-60
2021/03/27 07:16:31;;;;;;;2.15;1.10;;;9.90;57.50;;;;;;2064176;28;20109;-60
2021/03/27 07:18:23;;;;;;;4.55;1.20;;;9.90;57.60;;;;;;2062075;28;20413;-59
2021/03/27 07:20:05;;;;;;;1.45;1.15;;;9.90;57.40;;;;;;2063843;28;20030;-59
2021/03/27 07:21:26;;;;;;;3.53;0.98;;;9.90;57.60;;;;;;2063234;28;20035;-59
2021/03/27 07:23:05;;;;;;;1.10;1.00;;;9.90;57.30;;;;;;2062267;28;20482;-59
2021/03/27 07:24:47;;;;;;;2.60;1.10;;;9.90;57.80;;;;;;2063737;28;20041;-60
2021/03/27 07:26:23;;;;;;;2.58;1.20;;;9.90;57.40;;;;;;2064148;28;20138;-59
2021/03/27 07:28:11;;;;;;;1.77;1.10;;;9.90;57.60;;;;;;2061973;28;20022;-59
2021/03/27 07:30:05;;;;;;;1.30;1.00;;;9.90;57.50;;;;;;2062547;28;20061;-58
2021/03/27 07:31:29;;;;;;;4.35;1.08;;;9.90;57.40;;;;;;2058574;28;20023;-59
2021/03/27 07:32:56;;;;;;;2.42;1.10;;;9.90;57.50;;;;;;2065931;28;20046;-60
2021/03/27 07:34:16;;;;;;;1.40;1.02;;;10.00;57.30;;;;;;2063396;28;20026;-60
2021/03/27 07:36:14;;;;;;;0.90;0.90;;;9.90;57.30;;;;;;2059572;28;20498;-60
2021/03/27 07:37:54;;;;;;;2.13;1.20;;;10.00;57.60;;;;;;2060847;28;20368;-61
2021/03/27 07:39:33;;;;;;;1.33;1.15;;;10.00;57.30;;;;;;2058375;28;20031;-60
2021/03/27 07:41:32;;;;;;;2.83;1.10;;;10.10;57.40;;;;;;2063004;28;20041;-61
2021/03/27 07:43:14;;;;;;;5.60;1.38;;;10.10;57.20;;;;;;2063610;28;20034;-61
2021/03/27 07:45:02;;;;;;;3.90;1.45;;;10.20;57.00;;;;;;2068085;28;20567;-61
2021/03/27 07:46:44;;;;;;;3.00;1.50;;;10.10;57.00;;;;;;2059547;28;20105;-60
2021/03/27 07:48:35;;;;;;;1.98;1.10;;;10.20;56.70;;;;;;2065042;28;20034;-59
2021/03/27 07:50:15;;;;;;;2.85;1.25;;;10.20;56.50;;;;;;2067497;28;20049;-59
2021/03/27 07:51:54;;;;;;;2.25;1.63;;;10.20;56.50;;;;;;2064163;28;20289;-60
2021/03/27 07:53:52;;;;;;;2.95;1.40;;;10.20;56.40;;;;;;2063139;28;20377;-58
2021/03/27 07:55:52;;;;;;;1.88;1.45;;;10.20;56.50;;;;;;2063722;28;20466;-59
2021/03/27 07:57:18;;;;;;;3.22;1.55;;;10.20;56.50;;;;;;2062967;28;20274;-60
2021/03/27 07:59:06;;;;;;;2.95;1.33;;;10.20;56.20;;;;;;2064392;28;20061;-60
2021/03/27 08:01:02;;;;;;;2.03;1.30;;;10.20;56.50;;;;;;2065493;28;20532;-59
2021/03/27 08:02:54;;;;;;;2.38;1.38;;;10.20;56.60;;;;;;2043611;28;20427;-59
2021/03/27 08:04:59;;;;;;;3.45;1.67;;;10.20;56.70;;;;;;2066060;28;20129;-61
2021/03/27 08:06:48;;;;;;;4.05;1.85;;;10.30;56.80;;;;;;2060668;28;20097;-59
2021/03/27 08:08:34;;;;;;;2.97;1.60;;;10.30;56.70;;;;;;2067421;28;20405;-59
2021/03/27 08:10:19;;;;;;;4.00;1.42;;;10.30;56.50;;;;;;2065965;28;20031;-60
2021/03/27 08:11:58;;;;;;;2.55;1.40;;;10.40;56.60;;;;;;2063595;28;20036;-60
2021/03/27 08:13:34;;;;;;;6.25;1.85;;;10.40;56.50;;;;;;2064062;28;20255;-60
2021/03/27 08:15:03;;;;;;;3.70;1.63;;;10.40;56.20;;;;;;2063988;28;20030;-60
2021/03/27 08:16:58;;;;;;;5.55;1.60;;;10.40;56.00;;;;;;2059117;28;20462;-60
2021/03/27 08:18:51;;;;;;;3.88;1.73;;;10.50;56.00;;;;;;2065755;28;20052;-59
2021/03/27 08:20:17;;;;;;;2.97;1.35;;;10.50;56.20;;;;;;2064561;28;20432;-60
2021/03/27 08:21:46;;;;;;;2.95;1.10;;;10.50;56.00;;;;;;2061215;28;20105;-59
2021/03/27 08:23:13;;;;;;;2.78;1.35;;;10.50;55.90;;;;;;2063642;28;20427;-60
2021/03/27 08:24:40;;;;;;;8.57;1.88;;;10.50;55.90;;;;;;2062472;28;20110;-60
2021/03/27 08:26:44;;;;;;;5.60;1.63;;;10.50;56.00;;;;;;2064697;28;20030;-60
2021/03/27 08:28:38;;;;;;;4.88;1.80;;;10.60;56.20;;;;;;2065204;28;20116;-60
2021/03/27 08:30:14;;;;;;;3.60;1.73;;;10.60;55.90;;;;;;2064637;28;20035;-60
2021/03/27 08:32:09;;;;;;;3.50;1.77;;;10.60;55.70;;;;;;2061004;28;20041;-60
2021/03/27 08:34:02;;;;;;;3.40;1.73;;;10.60;55.60;;;;;;2060717;28;20037;-60
2021/03/27 08:35:49;;;;;;;3.28;2.10;;;10.60;55.60;;;;;;2065450;28;20041;-60
2021/03/27 08:37:40;;;;;;;4.22;1.70;;;10.60;55.60;;;;;;2044853;28;20031;-61